Glenbrook, NV (89413)

7:45 AM PDT on April 25, 2017 (GMT -0700)
Glenbrook House Rd | | Change Station

Elev 6388 ft 39.09 °N, 119.93 °W | Updated 3 seconds ago

Partly Cloudy
Partly Cloudy
32.9 °F
Feels Like 33 °F
N
0.0
Wind Variable Wind from SSW
Gusts 0.0 mph

Today
High -- | Low -- °F
--% Chance of Precip.
Yesterday
High -- | Low -- °F
Precip. -- in
Pressure 30.02 in
Visibility 10.0 miles
Clouds Clear
Windchill 33 °F
Dew Point 23 °F
Humidity 66%
Rainfall 0.00 in
Snow Depth Not available.
6:08 AM 7:47 PM
Waning Crescent, 1% visible
METAR KCXP 251435Z AUTO 07003KT 10SM CLR 05/M04 A3002 RMK AO2
Pressure 30.02 in
Visibility 10.0 miles
Clouds Clear
Windchill 33 °F
Dew Point 23 °F
Humidity 66%
Rainfall 0.00 in
Snow Depth Not available.
6:08 AM 7:47 PM
Waning Crescent, 1% visible
METAR KCXP 251435Z AUTO 07003KT 10SM CLR 05/M04 A3002 RMK AO2

Get Severe Weather Alerts

Thanks for signing up!

Be on the lookout for a verification email in your inbox.

You'll start receiving the daily forecast at 8 AM.

×

10-Day Weather Forecast

Almanac

Astronomy

Apr. 25, 2017 Rise Set
Actual Time
Civil Twilight
Nautical Twilight
Astronomical Twilight
Moon
Length of Visible Light
Length of Day
Tomorrow will be .
, % of the Moon is Illuminated

Today's Extremes

State Highs State Lows

Community

WunderPhotos

WunderBlog® & News

Nearby

Air Quality

  Air Quality AQ Index Pollutant
Not available.

Snow Depth

Station Depth Elevation

Earthquake Activity

City Distance Mag. Time & Date
Minimum magnitude displayed is 2.5.

Coastal Water Temperatures

Place Temperature

Stations

Nearby Weather Stations

Station Location Temp. Windchill Dew Point Humidity Wind Precip. Elev Updated Type
                   

Watches & Warnings

There are currently no watches in effect.